KRBD/RBD METAR and TAF weather

Enter ICAO airport designator
Station Type Date Time Source
KRBD METAR 2020/10/22 02:53 UTC NOAA

KRBD 220253Z AUTO 15007KT 10SM CLR 24/18 A2998 RMK AO2 SLP145 T02390178 50002


Station Type Date Time Source
KRBD Decoded METAR 2020/10/22 02:53 UTC NOAA

DALLAS EXECUTIVE AIRPORT, TX, United States (KRBD) 32-41N 096-52W 203M
Oct 21, 2020 - 10:53 PM EDT / 2020.10.22 0253 UTC
Wind: from the SSE (150 degrees) at 8 MPH (7 KT):0
Visibility: 10 mile(s):0
Sky conditions: clear
Temperature: 75.0 F (23.9 C)
Dew Point: 64.0 F (17.8 C)
Relative Humidity: 68%
Pressure (altimeter): 29.98 in. Hg (1015 hPa)
Pressure tendency: 0.01 inches (0.2 hPa) higher than three hours ago
ob: KRBD 220253Z AUTO 15007KT 10SM CLR 24/18 A2998 RMK AO2 SLP145 T02390178 50002
cycle: 3

Station Type Date Time Source
KRBD TAF UTC NOAA

Error!

Example: see airport list